sensor_id;sensor_type;location;lat;lon;timestamp;P1;durP1;ratioP1;P2;durP2;ratioP2
48925;SDS011;39838;59.938;30.642;2023-11-19T00:00:19;11.68;;;5.60;;
48925;SDS011;39838;59.938;30.642;2023-11-19T00:02:47;9.57;;;5.45;;
48925;SDS011;39838;59.938;30.642;2023-11-19T00:05:15;9.98;;;5.72;;
48925;SDS011;39838;59.938;30.642;2023-11-19T00:07:42;11.20;;;5.70;;
48925;SDS011;39838;59.938;30.642;2023-11-19T00:10:10;11.10;;;5.40;;
48925;SDS011;39838;59.938;30.642;2023-11-19T00:12:38;9.63;;;5.50;;
48925;SDS011;39838;59.938;30.642;2023-11-19T00:15:07;13.85;;;6.28;;
48925;SDS011;39838;59.938;30.642;2023-11-19T00:17:37;11.10;;;5.75;;
48925;SDS011;39838;59.938;30.642;2023-11-19T00:20:06;10.45;;;6.13;;
48925;SDS011;39838;59.938;30.642;2023-11-19T00:22:35;10.35;;;6.38;;
48925;SDS011;39838;59.938;30.642;2023-11-19T00:25:03;11.50;;;5.90;;
48925;SDS011;39838;59.938;30.642;2023-11-19T00:27:31;13.23;;;5.68;;
48925;SDS011;39838;59.938;30.642;2023-11-19T00:29:58;10.60;;;5.95;;
48925;SDS011;39838;59.938;30.642;2023-11-19T00:32:25;10.77;;;5.50;;
48925;SDS011;39838;59.938;30.642;2023-11-19T00:34:52;10.40;;;5.47;;
48925;SDS011;39838;59.938;30.642;2023-11-19T00:37:19;9.88;;;5.88;;
48925;SDS011;39838;59.938;30.642;2023-11-19T00:39:48;8.65;;;5.60;;
48925;SDS011;39838;59.938;30.642;2023-11-19T00:42:17;9.80;;;5.20;;
48925;SDS011;39838;59.938;30.642;2023-11-19T00:44:45;8.55;;;5.35;;
48925;SDS011;39838;59.938;30.642;2023-11-19T00:47:12;14.30;;;5.50;;
48925;SDS011;39838;59.938;30.642;2023-11-19T00:49:39;7.70;;;4.82;;
48925;SDS011;39838;59.938;30.642;2023-11-19T00:52:07;11.88;;;5.13;;
48925;SDS011;39838;59.938;30.642;2023-11-19T00:54:34;7.78;;;5.10;;
48925;SDS011;39838;59.938;30.642;2023-11-19T00:57:02;10.15;;;5.95;;
48925;SDS011;39838;59.938;30.642;2023-11-19T00:59:29;8.68;;;5.07;;
48925;SDS011;39838;59.938;30.642;2023-11-19T01:01:56;9.50;;;5.15;;
48925;SDS011;39838;59.938;30.642;2023-11-19T01:04:24;7.75;;;4.88;;
48925;SDS011;39838;59.938;30.642;2023-11-19T01:06:51;8.48;;;5.07;;
48925;SDS011;39838;59.938;30.642;2023-11-19T01:09:19;9.13;;;5.32;;
48925;SDS011;39838;59.938;30.642;2023-11-19T01:11:46;9.23;;;5.38;;
48925;SDS011;39838;59.938;30.642;2023-11-19T01:14:15;13.20;;;5.38;;
48925;SDS011;39838;59.938;30.642;2023-11-19T01:16:43;10.43;;;5.15;;
48925;SDS011;39838;59.938;30.642;2023-11-19T01:19:10;10.55;;;5.57;;
48925;SDS011;39838;59.938;30.642;2023-11-19T01:21:37;10.00;;;5.80;;
48925;SDS011;39838;59.938;30.642;2023-11-19T01:24:04;10.15;;;5.82;;
48925;SDS011;39838;59.938;30.642;2023-11-19T01:26:34;11.60;;;5.70;;
48925;SDS011;39838;59.938;30.642;2023-11-19T01:29:01;10.82;;;5.43;;
48925;SDS011;39838;59.938;30.642;2023-11-19T01:31:31;11.75;;;6.68;;
48925;SDS011;39838;59.938;30.642;2023-11-19T01:33:59;11.27;;;5.78;;
48925;SDS011;39838;59.938;30.642;2023-11-19T01:36:26;13.10;;;6.18;;
48925;SDS011;39838;59.938;30.642;2023-11-19T01:38:53;12.07;;;6.30;;
48925;SDS011;39838;59.938;30.642;2023-11-19T01:41:20;13.98;;;7.97;;
48925;SDS011;39838;59.938;30.642;2023-11-19T01:43:48;16.98;;;8.63;;
48925;SDS011;39838;59.938;30.642;2023-11-19T01:46:15;17.55;;;9.40;;
48925;SDS011;39838;59.938;30.642;2023-11-19T01:48:44;18.17;;;9.25;;
48925;SDS011;39838;59.938;30.642;2023-11-19T01:51:12;18.50;;;9.27;;
48925;SDS011;39838;59.938;30.642;2023-11-19T01:53:43;15.15;;;8.75;;
48925;SDS011;39838;59.938;30.642;2023-11-19T01:56:12;15.55;;;8.43;;
48925;SDS011;39838;59.938;30.642;2023-11-19T01:58:41;12.43;;;7.43;;
48925;SDS011;39838;59.938;30.642;2023-11-19T02:01:10;12.98;;;6.88;;
48925;SDS011;39838;59.938;30.642;2023-11-19T02:03:38;10.60;;;6.25;;
48925;SDS011;39838;59.938;30.642;2023-11-19T02:06:08;10.02;;;6.28;;
48925;SDS011;39838;59.938;30.642;2023-11-19T02:08:36;10.23;;;6.00;;
48925;SDS011;39838;59.938;30.642;2023-11-19T02:11:04;11.02;;;6.20;;
48925;SDS011;39838;59.938;30.642;2023-11-19T02:13:32;10.82;;;6.00;;
48925;SDS011;39838;59.938;30.642;2023-11-19T02:16:01;10.73;;;5.72;;
48925;SDS011;39838;59.938;30.642;2023-11-19T02:18:29;10.07;;;5.72;;
48925;SDS011;39838;59.938;30.642;2023-11-19T02:20:57;10.95;;;5.72;;
48925;SDS011;39838;59.938;30.642;2023-11-19T02:23:27;9.35;;;5.80;;
48925;SDS011;39838;59.938;30.642;2023-11-19T02:26:00;8.68;;;5.10;;
48925;SDS011;39838;59.938;30.642;2023-11-19T02:28:32;8.93;;;5.20;;
48925;SDS011;39838;59.938;30.642;2023-11-19T02:30:59;8.90;;;5.30;;
48925;SDS011;39838;59.938;30.642;2023-11-19T02:33:27;10.15;;;5.28;;
48925;SDS011;39838;59.938;30.642;2023-11-19T02:35:54;8.40;;;5.18;;
48925;SDS011;39838;59.938;30.642;2023-11-19T02:38:22;10.13;;;5.13;;
48925;SDS011;39838;59.938;30.642;2023-11-19T02:40:49;9.30;;;5.03;;
48925;SDS011;39838;59.938;30.642;2023-11-19T02:43:17;8.70;;;4.85;;
48925;SDS011;39838;59.938;30.642;2023-11-19T02:45:46;14.88;;;5.50;;
48925;SDS011;39838;59.938;30.642;2023-11-19T02:48:13;6.72;;;4.40;;
48925;SDS011;39838;59.938;30.642;2023-11-19T02:50:41;8.00;;;4.60;;
48925;SDS011;39838;59.938;30.642;2023-11-19T02:53:09;7.22;;;4.40;;
48925;SDS011;39838;59.938;30.642;2023-11-19T02:55:36;11.90;;;5.20;;
48925;SDS011;39838;59.938;30.642;2023-11-19T02:58:06;10.95;;;4.75;;
48925;SDS011;39838;59.938;30.642;2023-11-19T03:00:46;8.75;;;4.53;;
48925;SDS011;39838;59.938;30.642;2023-11-19T03:03:22;6.57;;;4.18;;
48925;SDS011;39838;59.938;30.642;2023-11-19T03:05:54;9.70;;;4.47;;
48925;SDS011;39838;59.938;30.642;2023-11-19T03:08:21;8.50;;;4.93;;
48925;SDS011;39838;59.938;30.642;2023-11-19T03:10:49;8.80;;;4.63;;
48925;SDS011;39838;59.938;30.642;2023-11-19T03:13:16;7.82;;;4.68;;
48925;SDS011;39838;59.938;30.642;2023-11-19T03:15:43;9.02;;;4.82;;
48925;SDS011;39838;59.938;30.642;2023-11-19T03:18:12;8.20;;;5.03;;
48925;SDS011;39838;59.938;30.642;2023-11-19T03:20:39;9.07;;;4.90;;
48925;SDS011;39838;59.938;30.642;2023-11-19T03:23:06;8.95;;;4.97;;
48925;SDS011;39838;59.938;30.642;2023-11-19T03:25:34;10.15;;;5.00;;
48925;SDS011;39838;59.938;30.642;2023-11-19T03:28:02;7.13;;;4.53;;
48925;SDS011;39838;59.938;30.642;2023-11-19T03:30:30;6.75;;;4.13;;
48925;SDS011;39838;59.938;30.642;2023-11-19T03:32:58;13.38;;;4.70;;
48925;SDS011;39838;59.938;30.642;2023-11-19T03:35:28;9.20;;;4.60;;
48925;SDS011;39838;59.938;30.642;2023-11-19T03:37:55;8.15;;;5.10;;
48925;SDS011;39838;59.938;30.642;2023-11-19T03:40:22;8.63;;;5.15;;
48925;SDS011;39838;59.938;30.642;2023-11-19T03:42:50;7.97;;;4.85;;
48925;SDS011;39838;59.938;30.642;2023-11-19T03:45:17;8.95;;;4.70;;
48925;SDS011;39838;59.938;30.642;2023-11-19T03:47:45;9.15;;;5.55;;
48925;SDS011;39838;59.938;30.642;2023-11-19T03:50:12;7.68;;;5.07;;
48925;SDS011;39838;59.938;30.642;2023-11-19T03:52:42;8.90;;;5.30;;
48925;SDS011;39838;59.938;30.642;2023-11-19T03:55:09;9.32;;;5.47;;
48925;SDS011;39838;59.938;30.642;2023-11-19T03:57:38;12.85;;;5.57;;
48925;SDS011;39838;59.938;30.642;2023-11-19T04:00:06;14.70;;;5.80;;
48925;SDS011;39838;59.938;30.642;2023-11-19T04:02:35;8.95;;;6.03;;
48925;SDS011;39838;59.938;30.642;2023-11-19T04:05:03;11.48;;;6.65;;
48925;SDS011;39838;59.938;30.642;2023-11-19T04:07:30;10.10;;;6.13;;
48925;SDS011;39838;59.938;30.642;2023-11-19T04:09:59;17.83;;;7.03;;
48925;SDS011;39838;59.938;30.642;2023-11-19T04:12:27;14.52;;;6.90;;
48925;SDS011;39838;59.938;30.642;2023-11-19T04:14:54;11.60;;;6.85;;
48925;SDS011;39838;59.938;30.642;2023-11-19T04:17:22;14.55;;;7.18;;
48925;SDS011;39838;59.938;30.642;2023-11-19T04:19:50;14.32;;;7.47;;
48925;SDS011;39838;59.938;30.642;2023-11-19T04:22:17;12.85;;;6.90;;
48925;SDS011;39838;59.938;30.642;2023-11-19T04:24:44;19.60;;;7.35;;
48925;SDS011;39838;59.938;30.642;2023-11-19T04:27:12;14.63;;;7.10;;
48925;SDS011;39838;59.938;30.642;2023-11-19T04:29:40;15.82;;;7.30;;
48925;SDS011;39838;59.938;30.642;2023-11-19T04:32:07;13.27;;;6.80;;
48925;SDS011;39838;59.938;30.642;2023-11-19T04:34:34;16.20;;;7.18;;
48925;SDS011;39838;59.938;30.642;2023-11-19T04:37:03;13.73;;;7.35;;
48925;SDS011;39838;59.938;30.642;2023-11-19T04:39:30;10.73;;;6.10;;
48925;SDS011;39838;59.938;30.642;2023-11-19T04:41:57;16.73;;;6.43;;
48925;SDS011;39838;59.938;30.642;2023-11-19T04:44:26;15.18;;;7.70;;
48925;SDS011;39838;59.938;30.642;2023-11-19T04:46:55;13.35;;;7.88;;
48925;SDS011;39838;59.938;30.642;2023-11-19T04:49:22;15.50;;;7.45;;
48925;SDS011;39838;59.938;30.642;2023-11-19T04:51:52;12.00;;;8.10;;
48925;SDS011;39838;59.938;30.642;2023-11-19T04:54:19;10.70;;;7.88;;
48925;SDS011;39838;59.938;30.642;2023-11-19T04:56:46;14.25;;;7.78;;
48925;SDS011;39838;59.938;30.642;2023-11-19T04:59:14;13.80;;;8.02;;
48925;SDS011;39838;59.938;30.642;2023-11-19T05:01:46;12.25;;;7.57;;
48925;SDS011;39838;59.938;30.642;2023-11-19T05:04:13;9.93;;;7.07;;
48925;SDS011;39838;59.938;30.642;2023-11-19T05:06:40;13.70;;;7.60;;
48925;SDS011;39838;59.938;30.642;2023-11-19T05:09:07;13.23;;;8.82;;
48925;SDS011;39838;59.938;30.642;2023-11-19T05:11:37;12.00;;;7.10;;
48925;SDS011;39838;59.938;30.642;2023-11-19T05:14:05;11.85;;;7.20;;
48925;SDS011;39838;59.938;30.642;2023-11-19T05:16:34;12.60;;;7.70;;
48925;SDS011;39838;59.938;30.642;2023-11-19T05:19:03;12.52;;;8.02;;
48925;SDS011;39838;59.938;30.642;2023-11-19T05:21:30;11.98;;;7.82;;
48925;SDS011;39838;59.938;30.642;2023-11-19T05:23:57;13.38;;;8.35;;
48925;SDS011;39838;59.938;30.642;2023-11-19T05:26:24;12.95;;;8.27;;
48925;SDS011;39838;59.938;30.642;2023-11-19T05:28:51;13.15;;;8.15;;
48925;SDS011;39838;59.938;30.642;2023-11-19T05:31:19;13.50;;;8.45;;
48925;SDS011;39838;59.938;30.642;2023-11-19T05:33:46;13.77;;;7.93;;
48925;SDS011;39838;59.938;30.642;2023-11-19T05:36:14;14.52;;;7.82;;
48925;SDS011;39838;59.938;30.642;2023-11-19T05:38:42;12.75;;;7.13;;
48925;SDS011;39838;59.938;30.642;2023-11-19T05:41:10;12.45;;;7.57;;
48925;SDS011;39838;59.938;30.642;2023-11-19T05:43:37;14.02;;;8.68;;
48925;SDS011;39838;59.938;30.642;2023-11-19T05:46:06;11.07;;;7.45;;
48925;SDS011;39838;59.938;30.642;2023-11-19T05:48:34;11.02;;;7.47;;
48925;SDS011;39838;59.938;30.642;2023-11-19T05:51:01;11.85;;;6.93;;
48925;SDS011;39838;59.938;30.642;2023-11-19T05:53:30;11.85;;;7.15;;
48925;SDS011;39838;59.938;30.642;2023-11-19T05:55:57;11.10;;;7.03;;
48925;SDS011;39838;59.938;30.642;2023-11-19T05:58:29;10.52;;;7.18;;
48925;SDS011;39838;59.938;30.642;2023-11-19T06:00:57;14.57;;;8.02;;
48925;SDS011;39838;59.938;30.642;2023-11-19T06:03:25;12.85;;;7.75;;
48925;SDS011;39838;59.938;30.642;2023-11-19T06:05:53;12.55;;;7.65;;
48925;SDS011;39838;59.938;30.642;2023-11-19T06:08:20;13.30;;;8.57;;
48925;SDS011;39838;59.938;30.642;2023-11-19T06:10:49;14.82;;;9.15;;
48925;SDS011;39838;59.938;30.642;2023-11-19T06:13:16;14.27;;;9.35;;
48925;SDS011;39838;59.938;30.642;2023-11-19T06:15:44;13.32;;;9.10;;
48925;SDS011;39838;59.938;30.642;2023-11-19T06:18:12;15.88;;;9.43;;
48925;SDS011;39838;59.938;30.642;2023-11-19T06:20:40;14.18;;;9.38;;
48925;SDS011;39838;59.938;30.642;2023-11-19T06:23:07;16.45;;;10.20;;
48925;SDS011;39838;59.938;30.642;2023-11-19T06:25:34;15.88;;;9.55;;
48925;SDS011;39838;59.938;30.642;2023-11-19T06:28:03;13.63;;;9.38;;
48925;SDS011;39838;59.938;30.642;2023-11-19T06:30:30;15.75;;;9.60;;
48925;SDS011;39838;59.938;30.642;2023-11-19T06:32:58;14.07;;;8.82;;
48925;SDS011;39838;59.938;30.642;2023-11-19T06:35:25;12.68;;;8.63;;
48925;SDS011;39838;59.938;30.642;2023-11-19T06:37:54;14.80;;;8.27;;
48925;SDS011;39838;59.938;30.642;2023-11-19T06:40:21;14.55;;;8.77;;
48925;SDS011;39838;59.938;30.642;2023-11-19T06:42:48;14.90;;;9.45;;
48925;SDS011;39838;59.938;30.642;2023-11-19T06:45:19;14.25;;;9.48;;
48925;SDS011;39838;59.938;30.642;2023-11-19T06:47:46;14.98;;;9.95;;
48925;SDS011;39838;59.938;30.642;2023-11-19T06:50:13;14.38;;;9.63;;
48925;SDS011;39838;59.938;30.642;2023-11-19T06:52:41;14.20;;;8.65;;
48925;SDS011;39838;59.938;30.642;2023-11-19T06:55:08;13.07;;;7.90;;
48925;SDS011;39838;59.938;30.642;2023-11-19T06:57:35;11.52;;;7.45;;
48925;SDS011;39838;59.938;30.642;2023-11-19T07:00:03;12.05;;;7.03;;
48925;SDS011;39838;59.938;30.642;2023-11-19T07:02:33;12.05;;;6.75;;
48925;SDS011;39838;59.938;30.642;2023-11-19T07:05:00;12.43;;;7.20;;
48925;SDS011;39838;59.938;30.642;2023-11-19T07:07:30;9.75;;;5.75;;
48925;SDS011;39838;59.938;30.642;2023-11-19T07:09:57;11.68;;;5.90;;
48925;SDS011;39838;59.938;30.642;2023-11-19T07:12:24;11.35;;;5.93;;
48925;SDS011;39838;59.938;30.642;2023-11-19T07:14:52;12.40;;;6.35;;
48925;SDS011;39838;59.938;30.642;2023-11-19T07:17:20;10.43;;;6.00;;
48925;SDS011;39838;59.938;30.642;2023-11-19T07:19:50;13.45;;;7.00;;
48925;SDS011;39838;59.938;30.642;2023-11-19T07:22:18;11.98;;;7.47;;
48925;SDS011;39838;59.938;30.642;2023-11-19T07:24:45;14.00;;;7.50;;
48925;SDS011;39838;59.938;30.642;2023-11-19T07:27:12;14.50;;;6.93;;
48925;SDS011;39838;59.938;30.642;2023-11-19T07:29:42;10.25;;;6.55;;
48925;SDS011;39838;59.938;30.642;2023-11-19T07:32:10;12.90;;;6.60;;
48925;SDS011;39838;59.938;30.642;2023-11-19T07:34:38;11.02;;;6.53;;
48925;SDS011;39838;59.938;30.642;2023-11-19T07:37:08;11.35;;;6.53;;
48925;SDS011;39838;59.938;30.642;2023-11-19T07:39:35;13.98;;;7.20;;
48925;SDS011;39838;59.938;30.642;2023-11-19T07:42:06;11.13;;;6.40;;
48925;SDS011;39838;59.938;30.642;2023-11-19T07:44:34;13.05;;;6.78;;
48925;SDS011;39838;59.938;30.642;2023-11-19T07:47:02;13.88;;;6.50;;
48925;SDS011;39838;59.938;30.642;2023-11-19T07:49:30;12.00;;;6.50;;
48925;SDS011;39838;59.938;30.642;2023-11-19T07:51:57;17.27;;;6.65;;
48925;SDS011;39838;59.938;30.642;2023-11-19T07:54:26;16.70;;;7.95;;
48925;SDS011;39838;59.938;30.642;2023-11-19T07:56:53;13.23;;;7.05;;
48925;SDS011;39838;59.938;30.642;2023-11-19T07:59:20;12.20;;;7.35;;
48925;SDS011;39838;59.938;30.642;2023-11-19T08:01:47;15.70;;;7.03;;
48925;SDS011;39838;59.938;30.642;2023-11-19T08:04:14;14.73;;;7.65;;
48925;SDS011;39838;59.938;30.642;2023-11-19T08:06:42;12.05;;;6.82;;
48925;SDS011;39838;59.938;30.642;2023-11-19T08:09:09;15.45;;;7.90;;
48925;SDS011;39838;59.938;30.642;2023-11-19T08:11:40;15.43;;;7.97;;
48925;SDS011;39838;59.938;30.642;2023-11-19T08:14:08;14.52;;;7.10;;
48925;SDS011;39838;59.938;30.642;2023-11-19T08:16:35;15.55;;;6.72;;
48925;SDS011;39838;59.938;30.642;2023-11-19T08:19:03;14.73;;;7.28;;
48925;SDS011;39838;59.938;30.642;2023-11-19T08:21:30;12.07;;;6.85;;
48925;SDS011;39838;59.938;30.642;2023-11-19T08:23:57;11.93;;;6.50;;
48925;SDS011;39838;59.938;30.642;2023-11-19T08:26:24;13.00;;;6.72;;
48925;SDS011;39838;59.938;30.642;2023-11-19T08:28:53;12.95;;;6.82;;
48925;SDS011;39838;59.938;30.642;2023-11-19T08:31:20;11.60;;;6.65;;
48925;SDS011;39838;59.938;30.642;2023-11-19T08:33:47;15.20;;;7.65;;
48925;SDS011;39838;59.938;30.642;2023-11-19T08:36:15;18.13;;;7.78;;
48925;SDS011;39838;59.938;30.642;2023-11-19T08:38:42;18.30;;;8.82;;
48925;SDS011;39838;59.938;30.642;2023-11-19T08:41:09;15.10;;;7.93;;
48925;SDS011;39838;59.938;30.642;2023-11-19T08:43:37;15.75;;;8.35;;
48925;SDS011;39838;59.938;30.642;2023-11-19T08:46:10;16.70;;;8.82;;
48925;SDS011;39838;59.938;30.642;2023-11-19T08:48:37;16.35;;;8.63;;
48925;SDS011;39838;59.938;30.642;2023-11-19T08:51:05;15.77;;;9.20;;
48925;SDS011;39838;59.938;30.642;2023-11-19T08:53:32;15.90;;;9.05;;
48925;SDS011;39838;59.938;30.642;2023-11-19T08:56:00;14.80;;;8.93;;
48925;SDS011;39838;59.938;30.642;2023-11-19T08:58:28;14.85;;;9.40;;
48925;SDS011;39838;59.938;30.642;2023-11-19T09:00:56;13.45;;;8.57;;
48925;SDS011;39838;59.938;30.642;2023-11-19T09:03:24;15.02;;;9.18;;
48925;SDS011;39838;59.938;30.642;2023-11-19T09:05:52;17.00;;;9.00;;
48925;SDS011;39838;59.938;30.642;2023-11-19T09:08:19;16.25;;;8.93;;
48925;SDS011;39838;59.938;30.642;2023-11-19T09:10:46;14.38;;;8.32;;
48925;SDS011;39838;59.938;30.642;2023-11-19T09:13:13;13.13;;;7.68;;
48925;SDS011;39838;59.938;30.642;2023-11-19T09:15:41;17.05;;;8.45;;
48925;SDS011;39838;59.938;30.642;2023-11-19T09:18:08;16.52;;;7.55;;
48925;SDS011;39838;59.938;30.642;2023-11-19T09:20:37;12.02;;;6.63;;
48925;SDS011;39838;59.938;30.642;2023-11-19T09:23:04;10.80;;;5.85;;
48925;SDS011;39838;59.938;30.642;2023-11-19T09:25:32;10.63;;;6.07;;
48925;SDS011;39838;59.938;30.642;2023-11-19T09:27:59;13.38;;;6.28;;
48925;SDS011;39838;59.938;30.642;2023-11-19T09:30:26;16.58;;;6.70;;
48925;SDS011;39838;59.938;30.642;2023-11-19T09:32:54;12.68;;;6.28;;
48925;SDS011;39838;59.938;30.642;2023-11-19T09:35:21;12.82;;;6.40;;
48925;SDS011;39838;59.938;30.642;2023-11-19T09:37:50;14.15;;;6.38;;
48925;SDS011;39838;59.938;30.642;2023-11-19T09:40:17;12.88;;;7.05;;
48925;SDS011;39838;59.938;30.642;2023-11-19T09:42:47;16.10;;;6.75;;
48925;SDS011;39838;59.938;30.642;2023-11-19T09:45:14;11.75;;;6.85;;
48925;SDS011;39838;59.938;30.642;2023-11-19T09:47:43;13.82;;;6.75;;
48925;SDS011;39838;59.938;30.642;2023-11-19T09:50:14;14.55;;;6.85;;
48925;SDS011;39838;59.938;30.642;2023-11-19T09:52:43;14.25;;;7.32;;
48925;SDS011;39838;59.938;30.642;2023-11-19T09:55:12;14.07;;;6.47;;
48925;SDS011;39838;59.938;30.642;2023-11-19T09:57:39;18.95;;;7.18;;
48925;SDS011;39838;59.938;30.642;2023-11-19T10:00:09;17.80;;;7.38;;
48925;SDS011;39838;59.938;30.642;2023-11-19T10:02:38;13.07;;;7.40;;
48925;SDS011;39838;59.938;30.642;2023-11-19T10:05:07;14.35;;;6.88;;
48925;SDS011;39838;59.938;30.642;2023-11-19T10:07:35;14.05;;;7.40;;
48925;SDS011;39838;59.938;30.642;2023-11-19T10:10:03;15.20;;;7.25;;
48925;SDS011;39838;59.938;30.642;2023-11-19T10:12:33;17.90;;;7.60;;
48925;SDS011;39838;59.938;30.642;2023-11-19T10:15:00;13.57;;;7.18;;
48925;SDS011;39838;59.938;30.642;2023-11-19T10:17:32;14.55;;;7.38;;
48925;SDS011;39838;59.938;30.642;2023-11-19T10:20:00;19.95;;;8.43;;
48925;SDS011;39838;59.938;30.642;2023-11-19T10:22:30;14.88;;;8.85;;
48925;SDS011;39838;59.938;30.642;2023-11-19T10:24:57;16.23;;;8.27;;
48925;SDS011;39838;59.938;30.642;2023-11-19T10:27:24;21.75;;;9.05;;
48925;SDS011;39838;59.938;30.642;2023-11-19T10:29:53;14.23;;;7.95;;
48925;SDS011;39838;59.938;30.642;2023-11-19T10:32:20;20.48;;;8.77;;
48925;SDS011;39838;59.938;30.642;2023-11-19T10:34:47;16.55;;;8.60;;
48925;SDS011;39838;59.938;30.642;2023-11-19T10:37:27;14.85;;;8.13;;
48925;SDS011;39838;59.938;30.642;2023-11-19T10:39:55;14.40;;;7.38;;
48925;SDS011;39838;59.938;30.642;2023-11-19T10:42:23;14.52;;;7.43;;
48925;SDS011;39838;59.938;30.642;2023-11-19T10:44:50;12.13;;;6.82;;
48925;SDS011;39838;59.938;30.642;2023-11-19T10:47:19;12.57;;;6.40;;
48925;SDS011;39838;59.938;30.642;2023-11-19T10:49:49;12.10;;;6.10;;
48925;SDS011;39838;59.938;30.642;2023-11-19T10:52:17;13.68;;;6.32;;
48925;SDS011;39838;59.938;30.642;2023-11-19T10:54:48;13.73;;;6.88;;
48925;SDS011;39838;59.938;30.642;2023-11-19T10:57:18;11.82;;;6.93;;
48925;SDS011;39838;59.938;30.642;2023-11-19T10:59:47;14.98;;;6.93;;
48925;SDS011;39838;59.938;30.642;2023-11-19T11:02:18;13.77;;;7.18;;
48925;SDS011;39838;59.938;30.642;2023-11-19T11:04:49;14.77;;;6.57;;
48925;SDS011;39838;59.938;30.642;2023-11-19T11:07:17;14.70;;;6.40;;
48925;SDS011;39838;59.938;30.642;2023-11-19T11:09:48;10.32;;;5.80;;
48925;SDS011;39838;59.938;30.642;2023-11-19T11:12:15;10.55;;;5.78;;
48925;SDS011;39838;59.938;30.642;2023-11-19T11:14:47;10.63;;;6.55;;
48925;SDS011;39838;59.938;30.642;2023-11-19T11:17:16;13.00;;;7.22;;
48925;SDS011;39838;59.938;30.642;2023-11-19T11:19:46;16.55;;;9.00;;
48925;SDS011;39838;59.938;30.642;2023-11-19T11:22:13;17.20;;;8.88;;
48925;SDS011;39838;59.938;30.642;2023-11-19T11:24:51;19.42;;;9.98;;
48925;SDS011;39838;59.938;30.642;2023-11-19T11:30:42;20.05;;;10.15;;
48925;SDS011;39838;59.938;30.642;2023-11-19T11:33:32;21.85;;;8.90;;
48925;SDS011;39838;59.938;30.642;2023-11-19T11:36:13;17.00;;;7.78;;
48925;SDS011;39838;59.938;30.642;2023-11-19T11:38:47;11.55;;;6.50;;
48925;SDS011;39838;59.938;30.642;2023-11-19T11:41:15;11.60;;;5.72;;
48925;SDS011;39838;59.938;30.642;2023-11-19T11:43:45;11.93;;;5.22;;
48925;SDS011;39838;59.938;30.642;2023-11-19T11:49:26;13.18;;;5.18;;
48925;SDS011;39838;59.938;30.642;2023-11-19T11:52:00;10.23;;;5.03;;
48925;SDS011;39838;59.938;30.642;2023-11-19T11:54:28;8.50;;;4.80;;
48925;SDS011;39838;59.938;30.642;2023-11-19T11:57:08;8.20;;;4.70;;
48925;SDS011;39838;59.938;30.642;2023-11-19T11:59:46;8.27;;;5.50;;
48925;SDS011;39838;59.938;30.642;2023-11-19T12:02:15;7.53;;;5.10;;
48925;SDS011;39838;59.938;30.642;2023-11-19T12:04:46;9.40;;;5.43;;
48925;SDS011;39838;59.938;30.642;2023-11-19T12:07:16;8.50;;;5.00;;
48925;SDS011;39838;59.938;30.642;2023-11-19T12:09:48;11.27;;;5.40;;
48925;SDS011;39838;59.938;30.642;2023-11-19T12:12:20;11.00;;;5.13;;
48925;SDS011;39838;59.938;30.642;2023-11-19T12:15:02;7.55;;;4.82;;
48925;SDS011;39838;59.938;30.642;2023-11-19T12:20:09;8.20;;;4.90;;
48925;SDS011;39838;59.938;30.642;2023-11-19T12:22:39;9.57;;;5.10;;
48925;SDS011;39838;59.938;30.642;2023-11-19T12:25:07;10.35;;;5.20;;
48925;SDS011;39838;59.938;30.642;2023-11-19T12:27:35;11.43;;;5.47;;
48925;SDS011;39838;59.938;30.642;2023-11-19T12:30:03;10.05;;;5.78;;
48925;SDS011;39838;59.938;30.642;2023-11-19T12:32:37;10.18;;;5.30;;
48925;SDS011;39838;59.938;30.642;2023-11-19T12:35:06;13.23;;;6.43;;
48925;SDS011;39838;59.938;30.642;2023-11-19T12:37:41;11.93;;;6.03;;
48925;SDS011;39838;59.938;30.642;2023-11-19T12:40:16;14.13;;;6.40;;
48925;SDS011;39838;59.938;30.642;2023-11-19T12:42:45;12.27;;;6.15;;
48925;SDS011;39838;59.938;30.642;2023-11-19T12:45:13;10.10;;;5.90;;
48925;SDS011;39838;59.938;30.642;2023-11-19T12:47:41;10.50;;;6.10;;
48925;SDS011;39838;59.938;30.642;2023-11-19T12:50:10;12.50;;;6.53;;
48925;SDS011;39838;59.938;30.642;2023-11-19T12:52:37;13.10;;;7.15;;
48925;SDS011;39838;59.938;30.642;2023-11-19T12:57:52;13.48;;;7.25;;
48925;SDS011;39838;59.938;30.642;2023-11-19T13:00:21;11.20;;;6.80;;
48925;SDS011;39838;59.938;30.642;2023-11-19T13:02:49;12.98;;;7.82;;
48925;SDS011;39838;59.938;30.642;2023-11-19T13:05:24;17.35;;;7.55;;
48925;SDS011;39838;59.938;30.642;2023-11-19T13:10:31;12.57;;;6.72;;
48925;SDS011;39838;59.938;30.642;2023-11-19T13:13:00;15.32;;;7.45;;
48925;SDS011;39838;59.938;30.642;2023-11-19T13:15:32;15.35;;;7.72;;
48925;SDS011;39838;59.938;30.642;2023-11-19T13:18:00;16.90;;;8.02;;
48925;SDS011;39838;59.938;30.642;2023-11-19T13:20:27;14.77;;;7.50;;
48925;SDS011;39838;59.938;30.642;2023-11-19T13:22:56;15.55;;;8.25;;
48925;SDS011;39838;59.938;30.642;2023-11-19T13:25:24;16.65;;;7.75;;
48925;SDS011;39838;59.938;30.642;2023-11-19T13:27:52;16.67;;;7.65;;
48925;SDS011;39838;59.938;30.642;2023-11-19T13:30:20;12.98;;;7.90;;
48925;SDS011;39838;59.938;30.642;2023-11-19T13:32:47;14.55;;;7.55;;
48925;SDS011;39838;59.938;30.642;2023-11-19T13:35:15;15.65;;;8.80;;
48925;SDS011;39838;59.938;30.642;2023-11-19T13:37:42;13.95;;;7.80;;
48925;SDS011;39838;59.938;30.642;2023-11-19T13:40:11;13.70;;;8.68;;
48925;SDS011;39838;59.938;30.642;2023-11-19T13:42:41;15.65;;;8.32;;
48925;SDS011;39838;59.938;30.642;2023-11-19T13:45:11;18.38;;;8.93;;
48925;SDS011;39838;59.938;30.642;2023-11-19T13:47:40;16.05;;;8.73;;
48925;SDS011;39838;59.938;30.642;2023-11-19T13:50:09;25.27;;;8.60;;
48925;SDS011;39838;59.938;30.642;2023-11-19T13:52:37;19.20;;;9.20;;
48925;SDS011;39838;59.938;30.642;2023-11-19T13:55:05;12.82;;;7.93;;
48925;SDS011;39838;59.938;30.642;2023-11-19T13:57:34;15.60;;;8.73;;
48925;SDS011;39838;59.938;30.642;2023-11-19T14:00:01;18.90;;;8.82;;
48925;SDS011;39838;59.938;30.642;2023-11-19T14:02:33;22.23;;;9.02;;
48925;SDS011;39838;59.938;30.642;2023-11-19T14:05:00;17.58;;;9.45;;
48925;SDS011;39838;59.938;30.642;2023-11-19T14:07:30;22.17;;;9.30;;
48925;SDS011;39838;59.938;30.642;2023-11-19T14:09:58;18.77;;;9.07;;
48925;SDS011;39838;59.938;30.642;2023-11-19T14:12:25;19.70;;;9.32;;
48925;SDS011;39838;59.938;30.642;2023-11-19T14:14:52;16.05;;;8.68;;
48925;SDS011;39838;59.938;30.642;2023-11-19T14:17:20;19.67;;;9.73;;
48925;SDS011;39838;59.938;30.642;2023-11-19T14:19:48;18.83;;;9.95;;
48925;SDS011;39838;59.938;30.642;2023-11-19T14:22:15;21.30;;;9.25;;
48925;SDS011;39838;59.938;30.642;2023-11-19T14:24:43;16.08;;;9.80;;
48925;SDS011;39838;59.938;30.642;2023-11-19T14:27:10;18.60;;;10.15;;
48925;SDS011;39838;59.938;30.642;2023-11-19T14:29:37;22.15;;;10.73;;
48925;SDS011;39838;59.938;30.642;2023-11-19T14:32:05;19.92;;;10.52;;
48925;SDS011;39838;59.938;30.642;2023-11-19T14:34:33;21.38;;;10.85;;
48925;SDS011;39838;59.938;30.642;2023-11-19T14:37:01;19.73;;;10.85;;
48925;SDS011;39838;59.938;30.642;2023-11-19T14:39:28;19.27;;;10.80;;
48925;SDS011;39838;59.938;30.642;2023-11-19T14:41:56;17.75;;;10.23;;
48925;SDS011;39838;59.938;30.642;2023-11-19T14:44:26;18.90;;;10.30;;